Time;durP1;ratioP1;P1;durP2;ratioP2;P2;SDS_P1;SDS_P2;PMS_P1;PMS_P2;Temp;Humidity;BMP_temperature;BMP_pressure;BME280_temperature;BME280_humidity;BME280_pressure;Samples;Min_cycle;Max_cycle;Signal;HPM_P1;HPM_P2
2021/08/17 00:01:16;;;;;;;3.63;3.05;;;24.90;55.20;;;;;;5015297;28;20026;-63
2021/08/17 00:03:42;;;;;;;5.03;2.50;;;24.80;54.20;;;;;;5015210;28;20528;-62
2021/08/17 00:06:08;;;;;;;3.90;2.70;;;24.90;54.50;;;;;;5011334;28;20493;-63
2021/08/17 00:08:34;;;;;;;2.88;2.40;;;24.90;54.30;;;;;;5008986;28;20364;-64
2021/08/17 00:11:00;;;;;;;2.92;2.30;;;24.90;54.30;;;;;;4995744;28;20041;-64
2021/08/17 00:13:26;;;;;;;3.50;2.50;;;24.90;54.50;;;;;;5001544;28;20026;-64
2021/08/17 00:15:52;;;;;;;3.40;2.80;;;24.90;54.50;;;;;;5014426;28;20021;-64
2021/08/17 00:18:18;;;;;;;5.28;2.38;;;24.90;54.40;;;;;;5014270;28;20026;-65
2021/08/17 00:20:44;;;;;;;4.07;2.70;;;24.90;54.40;;;;;;5014068;28;20036;-63
2021/08/17 00:23:10;;;;;;;4.20;2.90;;;24.90;54.40;;;;;;5014722;28;20379;-63
2021/08/17 00:25:36;;;;;;;3.28;2.78;;;24.90;54.10;;;;;;5013623;28;20021;-64
2021/08/17 00:28:02;;;;;;;4.10;2.53;;;24.90;54.30;;;;;;5014413;28;20037;-62
2021/08/17 00:30:28;;;;;;;4.95;3.10;;;24.90;54.20;;;;;;5013701;28;20375;-62
2021/08/17 00:32:54;;;;;;;4.53;2.75;;;24.80;53.60;;;;;;5014217;28;20034;-64
2021/08/17 00:35:23;;;;;;;3.83;2.97;;;24.80;54.00;;;;;;5012350;28;20022;-64
2021/08/17 00:37:49;;;;;;;4.35;2.40;;;24.80;53.80;;;;;;5001140;28;20480;-64
2021/08/17 00:40:15;;;;;;;3.35;2.42;;;24.80;53.80;;;;;;4994325;28;20077;-63
2021/08/17 00:42:46;;;;;;;4.78;2.85;;;24.70;53.70;;;;;;4993925;28;20038;-63
2021/08/17 00:45:13;;;;;;;3.45;2.28;;;24.70;53.70;;;;;;4994512;28;20101;-63
2021/08/17 00:47:39;;;;;;;4.60;3.20;;;24.70;53.80;;;;;;4993890;28;20081;-64
2021/08/17 00:50:05;;;;;;;3.72;2.80;;;24.70;53.60;;;;;;4994262;28;20461;-63
2021/08/17 00:52:31;;;;;;;4.30;3.05;;;24.70;53.30;;;;;;4993790;28;20472;-63
2021/08/17 00:54:57;;;;;;;3.55;2.88;;;24.70;53.40;;;;;;4994050;28;20069;-63
2021/08/17 00:57:22;;;;;;;3.80;2.67;;;24.70;53.10;;;;;;4993740;28;20079;-63
2021/08/17 00:59:48;;;;;;;4.28;3.10;;;24.70;53.30;;;;;;4994137;28;20377;-63
2021/08/17 01:02:14;;;;;;;4.32;2.75;;;24.70;53.10;;;;;;4994460;28;20090;-64
2021/08/17 01:04:40;;;;;;;3.58;2.78;;;24.60;52.90;;;;;;5008625;28;20093;-64
2021/08/17 01:07:08;;;;;;;4.55;3.28;;;24.60;52.90;;;;;;5007602;28;20026;-63
2021/08/17 01:09:35;;;;;;;3.63;2.53;;;24.60;52.80;;;;;;4993608;28;20039;-65
2021/08/17 01:12:01;;;;;;;4.18;2.70;;;24.60;52.60;;;;;;4993465;28;20042;-65
2021/08/17 01:14:27;;;;;;;4.63;2.92;;;24.70;53.10;;;;;;4993110;28;20484;-61
2021/08/17 01:16:53;;;;;;;4.05;2.78;;;24.70;52.70;;;;;;4993624;28;20041;-61
2021/08/17 01:19:20;;;;;;;5.43;3.53;;;24.70;52.80;;;;;;4993587;28;20041;-63
2021/08/17 01:21:46;;;;;;;4.30;2.85;;;24.70;52.50;;;;;;4993690;28;20121;-61
2021/08/17 01:24:12;;;;;;;3.47;2.67;;;24.70;52.60;;;;;;4993797;28;20432;-62
2021/08/17 01:26:38;;;;;;;5.03;3.33;;;24.70;52.60;;;;;;4992918;28;20034;-62
2021/08/17 01:29:05;;;;;;;3.88;3.10;;;24.70;52.90;;;;;;4993949;28;20084;-62
2021/08/17 01:31:31;;;;;;;4.18;2.72;;;24.80;52.80;;;;;;4993050;28;20461;-62
2021/08/17 01:33:57;;;;;;;4.18;2.88;;;24.80;52.40;;;;;;4993820;28;20034;-62
2021/08/17 01:36:22;;;;;;;3.67;2.67;;;24.80;52.70;;;;;;4992892;28;20464;-65
2021/08/17 01:38:50;;;;;;;3.72;2.80;;;24.80;52.40;;;;;;4993405;28;20384;-62
2021/08/17 01:41:16;;;;;;;3.97;2.65;;;24.70;52.50;;;;;;4992935;28;20057;-62
2021/08/17 01:43:43;;;;;;;4.00;2.92;;;24.70;52.50;;;;;;4992631;28;20100;-62
2021/08/17 01:46:10;;;;;;;3.53;2.72;;;24.70;52.50;;;;;;4993287;28;20129;-62
2021/08/17 01:48:35;;;;;;;4.13;2.88;;;24.70;52.50;;;;;;4992691;28;20041;-62
2021/08/17 01:51:01;;;;;;;4.47;3.22;;;24.70;52.30;;;;;;4993301;28;20030;-63
2021/08/17 01:53:28;;;;;;;4.20;2.70;;;24.70;52.30;;;;;;4992660;28;20539;-63
2021/08/17 01:55:55;;;;;;;3.20;2.70;;;24.70;52.20;;;;;;4993123;28;20113;-63
2021/08/17 01:58:24;;;;;;;4.10;2.47;;;24.70;52.30;;;;;;4993048;28;20030;-64
2021/08/17 02:00:50;;;;;;;4.38;2.80;;;24.70;52.00;;;;;;4993164;28;20026;-63
2021/08/17 02:03:16;;;;;;;4.97;3.40;;;24.70;52.20;;;;;;4993284;28;20026;-62
2021/08/17 02:05:42;;;;;;;3.95;2.85;;;24.70;52.00;;;;;;4992314;28;20715;-63
2021/08/17 02:08:09;;;;;;;3.13;2.65;;;24.70;52.30;;;;;;5007335;28;20144;-61
2021/08/17 02:10:35;;;;;;;3.80;2.22;;;24.80;51.80;;;;;;4996662;28;20113;-62
2021/08/17 02:13:01;;;;;;;3.95;2.63;;;24.80;52.00;;;;;;4993048;28;20038;-62
2021/08/17 02:15:26;;;;;;;5.70;2.65;;;24.70;51.80;;;;;;4992077;28;20523;-62
2021/08/17 02:17:52;;;;;;;3.85;2.92;;;24.70;52.00;;;;;;4993229;28;20041;-61
2021/08/17 02:20:18;;;;;;;4.68;2.90;;;24.70;52.00;;;;;;4992978;28;20041;-62
2021/08/17 02:22:43;;;;;;;3.97;2.85;;;24.70;51.70;;;;;;4991567;28;20035;-61
2021/08/17 02:25:09;;;;;;;3.88;2.65;;;24.70;51.60;;;;;;4993104;28;20022;-62
2021/08/17 02:27:36;;;;;;;5.00;2.72;;;24.70;51.90;;;;;;4991854;28;20027;-61
2021/08/17 02:30:04;;;;;;;3.85;2.47;;;24.70;51.60;;;;;;4993125;28;20460;-61
2021/08/17 02:32:30;;;;;;;4.68;2.75;;;24.70;51.80;;;;;;4991749;28;20100;-62
2021/08/17 02:34:56;;;;;;;4.97;2.65;;;24.70;51.90;;;;;;4991489;28;20085;-62
2021/08/17 02:37:21;;;;;;;4.35;2.60;;;24.60;51.50;;;;;;4992269;28;20033;-64
2021/08/17 02:39:47;;;;;;;4.93;2.92;;;24.70;51.60;;;;;;4992246;28;20045;-63
2021/08/17 02:42:13;;;;;;;5.07;3.15;;;24.60;51.50;;;;;;4992113;28;20439;-62
2021/08/17 02:44:38;;;;;;;3.63;2.63;;;24.60;51.50;;;;;;4991830;28;20380;-62
2021/08/17 02:47:04;;;;;;;3.33;2.47;;;24.70;51.60;;;;;;4992192;28;20026;-62
2021/08/17 02:49:32;;;;;;;4.65;2.53;;;24.70;51.60;;;;;;4991853;28;20033;-61
2021/08/17 02:52:00;;;;;;;3.55;2.50;;;24.70;51.40;;;;;;4992583;28;20033;-61
2021/08/17 02:54:26;;;;;;;4.55;2.78;;;24.70;51.30;;;;;;4991861;28;20065;-64
2021/08/17 02:56:52;;;;;;;5.00;3.28;;;24.70;51.60;;;;;;4992349;28;20030;-61
2021/08/17 02:59:18;;;;;;;5.22;2.38;;;24.70;51.50;;;;;;4992375;28;20117;-61
2021/08/17 03:01:43;;;;;;;3.90;2.63;;;24.70;51.60;;;;;;4991711;28;20110;-60
2021/08/17 03:04:09;;;;;;;3.95;2.50;;;24.70;51.50;;;;;;4992239;28;20022;-61
2021/08/17 03:06:35;;;;;;;3.88;2.40;;;24.70;51.50;;;;;;4991117;28;20437;-62
2021/08/17 03:09:00;;;;;;;3.58;2.60;;;24.60;51.20;;;;;;4994593;28;20034;-63
2021/08/17 03:11:26;;;;;;;3.92;2.50;;;24.60;51.50;;;;;;5011312;28;20036;-62
2021/08/17 03:13:52;;;;;;;3.63;2.30;;;24.60;51.50;;;;;;5011876;28;20472;-63
2021/08/17 03:16:18;;;;;;;3.88;2.42;;;24.60;51.30;;;;;;5011969;28;20447;-64
2021/08/17 03:18:43;;;;;;;3.50;2.25;;;24.60;51.50;;;;;;5010710;28;20117;-62
2021/08/17 03:21:09;;;;;;;3.97;2.63;;;24.70;51.60;;;;;;5011911;28;20026;-62
2021/08/17 03:23:35;;;;;;;3.42;2.60;;;24.70;51.50;;;;;;5011008;28;20423;-61
2021/08/17 03:26:00;;;;;;;3.83;2.40;;;24.70;51.50;;;;;;5011664;28;20122;-62
2021/08/17 03:28:26;;;;;;;3.72;2.42;;;24.70;51.50;;;;;;5010749;28;20033;-60
2021/08/17 03:30:52;;;;;;;3.33;2.17;;;24.60;51.40;;;;;;5011891;28;20468;-61
2021/08/17 03:33:17;;;;;;;4.30;2.55;;;24.70;51.40;;;;;;5011435;28;20026;-61
2021/08/17 03:35:43;;;;;;;3.15;2.17;;;24.70;51.30;;;;;;5014092;28;20037;-61
2021/08/17 03:38:09;;;;;;;4.53;2.40;;;24.70;51.30;;;;;;5015049;28;20040;-61
2021/08/17 03:40:34;;;;;;;3.33;2.70;;;24.70;51.50;;;;;;5014083;28;20157;-61
2021/08/17 03:43:00;;;;;;;3.35;2.28;;;24.70;51.30;;;;;;5015281;28;20044;-61
2021/08/17 03:45:26;;;;;;;3.00;2.55;;;24.60;51.20;;;;;;5014713;28;20026;-64
2021/08/17 03:47:51;;;;;;;2.70;2.20;;;24.60;51.30;;;;;;5015084;28;20407;-61
2021/08/17 03:50:18;;;;;;;4.03;2.70;;;24.60;51.30;;;;;;5015345;28;20487;-61
2021/08/17 03:52:45;;;;;;;3.60;2.40;;;24.60;51.20;;;;;;5014456;28;20022;-61
2021/08/17 03:55:12;;;;;;;4.78;2.03;;;24.60;51.30;;;;;;5015008;28;20032;-61
2021/08/17 03:57:38;;;;;;;4.68;2.72;;;24.60;51.30;;;;;;5014387;28;20026;-61
2021/08/17 04:00:10;;;;;;;3.70;2.40;;;24.70;51.40;;;;;;5014583;28;20033;-63
2021/08/17 04:02:36;;;;;;;4.57;2.53;;;24.70;51.40;;;;;;5013836;28;20479;-62
2021/08/17 04:05:02;;;;;;;4.25;2.33;;;24.70;51.30;;;;;;5014794;28;20041;-61
2021/08/17 04:07:27;;;;;;;3.42;2.38;;;24.70;51.20;;;;;;5013780;28;20340;-64
2021/08/17 04:09:53;;;;;;;3.63;2.40;;;24.60;51.20;;;;;;5005516;28;20022;-61
2021/08/17 04:12:19;;;;;;;3.63;2.60;;;24.60;50.70;;;;;;5004837;28;20064;-62
2021/08/17 04:14:44;;;;;;;3.70;2.22;;;24.60;50.80;;;;;;5013526;28;20028;-61
2021/08/17 04:17:10;;;;;;;3.13;2.20;;;24.50;50.80;;;;;;5013505;28;20117;-62
2021/08/17 04:19:38;;;;;;;2.47;2.00;;;24.50;50.70;;;;;;5013708;28;20030;-61
2021/08/17 04:22:05;;;;;;;4.68;2.30;;;24.50;50.80;;;;;;5014709;28;20080;-62
2021/08/17 04:24:30;;;;;;;2.92;2.20;;;24.60;50.70;;;;;;5013803;28;20069;-61
2021/08/17 04:26:56;;;;;;;4.50;2.60;;;24.60;50.80;;;;;;5014714;28;20062;-61
2021/08/17 04:29:21;;;;;;;4.20;2.60;;;24.60;50.50;;;;;;5014312;28;20030;-61
2021/08/17 04:31:47;;;;;;;3.03;1.83;;;24.60;50.80;;;;;;5013753;28;20030;-61
2021/08/17 04:34:13;;;;;;;4.07;2.50;;;24.60;50.40;;;;;;5014193;28;20480;-62
2021/08/17 04:36:38;;;;;;;3.45;2.00;;;24.50;50.30;;;;;;5013225;28;20034;-62
2021/08/17 04:39:04;;;;;;;4.03;2.60;;;24.50;50.40;;;;;;5014126;28;20045;-61
2021/08/17 04:41:30;;;;;;;3.35;2.25;;;24.50;50.40;;;;;;5013506;28;20056;-61
2021/08/17 04:43:55;;;;;;;3.92;2.30;;;24.50;50.50;;;;;;5013384;28;20406;-64
2021/08/17 04:46:21;;;;;;;3.55;2.50;;;24.50;50.20;;;;;;5013842;28;20026;-62
2021/08/17 04:48:49;;;;;;;3.42;2.20;;;24.50;50.30;;;;;;5013261;28;20030;-62
2021/08/17 04:51:14;;;;;;;3.20;2.50;;;24.50;50.50;;;;;;5014248;28;20053;-61
2021/08/17 04:53:40;;;;;;;2.90;2.05;;;24.50;50.10;;;;;;5013195;28;20034;-61
2021/08/17 04:56:06;;;;;;;3.67;2.55;;;24.50;50.30;;;;;;5014060;28;20026;-61
2021/08/17 04:58:32;;;;;;;3.78;2.17;;;24.50;50.10;;;;;;5013099;28;20372;-62
2021/08/17 05:00:58;;;;;;;3.00;2.45;;;24.50;50.10;;;;;;5013897;28;20061;-62
2021/08/17 05:03:25;;;;;;;4.03;2.33;;;24.50;50.40;;;;;;5013906;28;20065;-62
2021/08/17 05:05:51;;;;;;;3.90;2.75;;;24.40;49.80;;;;;;5013275;28;20022;-63
2021/08/17 05:08:17;;;;;;;2.85;2.00;;;24.40;50.20;;;;;;5013874;28;20514;-62
2021/08/17 05:10:43;;;;;;;4.05;2.42;;;24.40;49.80;;;;;;4996375;28;20037;-62
2021/08/17 05:13:08;;;;;;;2.90;2.17;;;24.40;49.90;;;;;;5005457;28;20030;-63
2021/08/17 05:15:34;;;;;;;3.28;2.13;;;24.40;49.90;;;;;;5012643;28;20030;-62
2021/08/17 05:18:00;;;;;;;4.05;2.30;;;24.40;49.70;;;;;;5013651;28;20460;-62
2021/08/17 05:20:26;;;;;;;2.78;2.13;;;24.40;49.70;;;;;;5013380;28;20038;-62
2021/08/17 05:22:52;;;;;;;3.60;2.47;;;24.40;49.80;;;;;;5013026;28;20029;-62
2021/08/17 05:25:17;;;;;;;3.40;2.10;;;24.40;49.80;;;;;;5013483;28;20029;-62
2021/08/17 05:27:44;;;;;;;4.85;2.17;;;24.40;49.80;;;;;;5012759;28;20029;-63
2021/08/17 05:30:10;;;;;;;5.68;2.55;;;24.40;49.70;;;;;;5012858;28;20030;-65
2021/08/17 05:32:36;;;;;;;4.57;2.55;;;24.40;49.80;;;;;;5012708;28;20372;-63
2021/08/17 05:35:03;;;;;;;4.85;2.30;;;24.50;50.00;;;;;;5013285;28;20026;-63
2021/08/17 05:37:29;;;;;;;3.97;2.30;;;24.50;49.70;;;;;;5013146;28;20064;-64
2021/08/17 05:39:54;;;;;;;3.72;2.33;;;24.50;49.80;;;;;;5012620;28;20046;-62
2021/08/17 05:42:20;;;;;;;3.35;2.30;;;24.50;49.90;;;;;;5013028;28;20037;-60
2021/08/17 05:44:46;;;;;;;3.67;2.10;;;24.50;50.00;;;;;;5012313;28;20487;-61
2021/08/17 05:47:13;;;;;;;4.82;1.83;;;24.50;49.90;;;;;;5013029;28;20097;-59
2021/08/17 05:49:39;;;;;;;4.03;2.17;;;24.50;49.90;;;;;;5012248;28;20061;-61
2021/08/17 05:52:06;;;;;;;4.35;2.03;;;24.60;49.90;;;;;;5012797;28;20483;-61
2021/08/17 05:54:32;;;;;;;5.22;2.17;;;24.60;50.10;;;;;;5012216;28;20050;-62
2021/08/17 05:56:58;;;;;;;4.18;1.92;;;24.50;49.90;;;;;;5012567;28;20069;-59
2021/08/17 05:59:26;;;;;;;5.53;2.40;;;24.50;50.00;;;;;;5012682;28;20084;-64
2021/08/17 06:01:55;;;;;;;3.65;2.30;;;24.70;49.90;;;;;;5011752;28;20450;-62
2021/08/17 06:04:21;;;;;;;7.38;2.63;;;24.70;50.10;;;;;;5012514;28;20054;-59
2021/08/17 06:06:47;;;;;;;3.78;2.30;;;24.70;50.80;;;;;;5011992;28;20533;-60
2021/08/17 06:09:13;;;;;;;4.18;2.38;;;24.80;50.60;;;;;;5008103;28;20472;-60
2021/08/17 06:11:39;;;;;;;7.05;2.60;;;24.80;50.70;;;;;;4991929;28;20081;-61
2021/08/17 06:14:05;;;;;;;4.32;2.50;;;24.90;50.30;;;;;;5011905;28;20030;-61
2021/08/17 06:16:32;;;;;;;5.55;2.40;;;24.90;50.10;;;;;;5010579;28;20448;-64
2021/08/17 06:18:58;;;;;;;8.73;2.63;;;24.90;50.20;;;;;;5012521;28;20031;-59
2021/08/17 06:21:24;;;;;;;7.50;2.35;;;24.90;50.20;;;;;;5012556;28;20032;-61
2021/08/17 06:23:49;;;;;;;3.88;2.03;;;24.90;50.10;;;;;;5010986;28;20141;-61
2021/08/17 06:26:15;;;;;;;4.90;2.33;;;24.90;50.50;;;;;;5012667;28;20030;-61
2021/08/17 06:28:41;;;;;;;6.15;2.45;;;24.90;50.60;;;;;;5011981;28;20037;-61
2021/08/17 06:31:07;;;;;;;4.55;2.78;;;25.00;46.80;;;;;;5012443;28;20452;-61
2021/08/17 06:33:34;;;;;;;4.30;2.35;;;25.00;46.70;;;;;;5011319;28;20030;-61
2021/08/17 06:35:59;;;;;;;4.18;2.13;;;25.10;46.70;;;;;;5012053;28;20029;-61
2021/08/17 06:38:25;;;;;;;5.78;2.83;;;25.20;45.60;;;;;;5012169;28;20069;-60
2021/08/17 06:40:51;;;;;;;5.60;2.55;;;25.20;45.10;;;;;;5011206;28;20149;-58
2021/08/17 06:43:16;;;;;;;4.95;2.72;;;25.20;45.00;;;;;;5011835;28;20061;-61
2021/08/17 06:45:42;;;;;;;5.93;2.95;;;25.20;45.10;;;;;;5011179;28;20038;-62
2021/08/17 06:48:08;;;;;;;4.72;3.22;;;25.00;45.70;;;;;;5012102;28;20033;-61
2021/08/17 06:50:33;;;;;;;3.90;2.50;;;25.00;45.60;;;;;;5011031;28;20387;-61
2021/08/17 06:52:59;;;;;;;5.00;2.60;;;25.00;45.10;;;;;;5012023;28;20035;-63
2021/08/17 06:55:25;;;;;;;6.25;2.60;;;25.00;45.00;;;;;;5011813;28;20037;-58
2021/08/17 06:57:51;;;;;;;5.18;2.65;;;25.00;44.90;;;;;;5010880;28;20018;-62
2021/08/17 07:00:16;;;;;;;4.95;3.10;;;25.00;45.20;;;;;;5011976;28;20041;-62
2021/08/17 07:02:42;;;;;;;6.55;3.47;;;24.90;45.50;;;;;;5011050;28;20053;-64
2021/08/17 07:05:08;;;;;;;5.85;3.17;;;24.90;44.60;;;;;;5012206;28;20037;-63
2021/08/17 07:07:34;;;;;;;5.93;3.08;;;24.80;45.40;;;;;;5011011;28;20475;-63
2021/08/17 07:10:00;;;;;;;5.55;3.28;;;24.70;45.30;;;;;;5003965;28;20037;-62
2021/08/17 07:12:25;;;;;;;14.38;3.00;;;24.80;44.30;;;;;;4996246;28;20428;-62
2021/08/17 07:14:51;;;;;;;4.05;2.70;;;24.90;43.80;;;;;;4995643;28;20022;-63
2021/08/17 07:17:17;;;;;;;7.68;3.80;;;24.90;43.70;;;;;;4996043;28;20033;-64
2021/08/17 07:19:43;;;;;;;4.07;2.78;;;24.90;44.30;;;;;;4995417;28;20042;-62
2021/08/17 07:22:09;;;;;;;4.95;3.05;;;24.80;45.00;;;;;;5001502;28;20045;-62
2021/08/17 07:24:35;;;;;;;5.70;3.00;;;24.80;44.10;;;;;;5015217;28;20451;-61
2021/08/17 07:27:00;;;;;;;8.05;4.10;;;24.70;45.00;;;;;;5015567;28;20029;-62
2021/08/17 07:29:26;;;;;;;6.88;3.40;;;24.80;44.10;;;;;;5014896;28;20097;-63
2021/08/17 07:31:52;;;;;;;8.52;3.13;;;24.90;43.80;;;;;;5014511;28;20637;-61
2021/08/17 07:34:18;;;;;;;8.10;4.07;;;25.00;43.60;;;;;;5015457;28;20022;-60
2021/08/17 07:36:43;;;;;;;6.10;3.40;;;25.10;43.90;;;;;;5014598;28;20116;-64
2021/08/17 07:39:12;;;;;;;6.53;3.33;;;25.00;44.20;;;;;;5015033;28;20034;-65
2021/08/17 07:41:38;;;;;;;6.32;3.50;;;24.80;44.80;;;;;;5014517;28;20100;-62
2021/08/17 07:44:05;;;;;;;5.93;2.83;;;24.90;43.70;;;;;;5015502;28;20503;-61
2021/08/17 07:46:31;;;;;;;4.82;3.22;;;24.80;44.50;;;;;;5015247;28;20422;-60
2021/08/17 07:48:57;;;;;;;5.60;3.22;;;24.70;44.60;;;;;;5014567;28;20022;-61
2021/08/17 07:51:23;;;;;;;6.47;3.95;;;24.80;44.60;;;;;;5015365;28;20054;-61
2021/08/17 07:53:49;;;;;;;4.75;3.10;;;24.60;44.70;;;;;;5014491;28;20034;-61
2021/08/17 07:56:14;;;;;;;4.53;3.05;;;24.70;44.70;;;;;;5014922;28;20456;-60
2021/08/17 07:58:40;;;;;;;5.53;3.58;;;24.80;43.60;;;;;;5014173;28;20042;-64
2021/08/17 08:01:06;;;;;;;6.45;3.03;;;24.70;44.20;;;;;;5015074;28;20387;-64
2021/08/17 08:03:34;;;;;;;5.57;3.20;;;24.70;43.60;;;;;;5014771;28;20423;-64
2021/08/17 08:06:00;;;;;;;5.82;3.47;;;24.70;43.90;;;;;;5014708;28;20452;-62
2021/08/17 08:08:25;;;;;;;6.35;3.22;;;24.70;43.30;;;;;;5014822;28;20033;-62
2021/08/17 08:10:52;;;;;;;5.15;3.10;;;24.60;44.00;;;;;;4996128;28;20041;-60
2021/08/17 08:13:17;;;;;;;3.92;2.95;;;24.60;44.10;;;;;;4995026;28;20496;-61
2021/08/17 08:15:43;;;;;;;7.10;3.42;;;24.60;43.20;;;;;;4994589;28;20092;-62
2021/08/17 08:18:09;;;;;;;6.38;3.13;;;24.60;44.00;;;;;;4994616;28;20030;-62
2021/08/17 08:20:35;;;;;;;5.70;2.97;;;24.60;44.00;;;;;;4991725;28;20034;-63
2021/08/17 08:23:01;;;;;;;5.70;3.17;;;24.60;43.30;;;;;;4994870;28;20037;-63
2021/08/17 08:25:27;;;;;;;7.53;3.45;;;24.60;43.60;;;;;;5003356;28;20036;-63
2021/08/17 08:27:53;;;;;;;6.93;3.60;;;24.60;44.00;;;;;;5013102;28;20112;-63
2021/08/17 08:30:18;;;;;;;6.22;3.30;;;24.70;42.30;;;;;;5015504;28;20037;-64
2021/08/17 08:32:44;;;;;;;6.07;3.30;;;24.80;41.50;;;;;;5013577;28;20105;-63
2021/08/17 08:35:11;;;;;;;6.65;3.33;;;24.80;40.90;;;;;;5013860;28;20022;-63
2021/08/17 08:37:37;;;;;;;6.68;3.05;;;24.80;42.10;;;;;;5013267;28;20030;-63
2021/08/17 08:40:05;;;;;;;5.82;3.10;;;24.80;42.90;;;;;;5013652;28;20048;-60
2021/08/17 08:42:31;;;;;;;8.05;3.42;;;24.70;42.40;;;;;;5014090;28;20088;-61
2021/08/17 08:44:57;;;;;;;10.35;3.95;;;24.60;42.70;;;;;;5013246;28;20021;-62
2021/08/17 08:47:22;;;;;;;8.27;4.10;;;24.60;42.60;;;;;;5013683;28;20034;-64
2021/08/17 08:49:51;;;;;;;7.47;3.35;;;24.60;41.40;;;;;;5013230;28;20033;-65
2021/08/17 08:52:17;;;;;;;7.70;3.97;;;24.70;41.80;;;;;;5014169;28;20029;-67
2021/08/17 08:54:43;;;;;;;16.05;3.95;;;24.60;41.10;;;;;;5012471;28;20034;-67
2021/08/17 08:57:09;;;;;;;6.65;3.75;;;24.60;42.20;;;;;;5013547;28;20026;-66
2021/08/17 08:59:35;;;;;;;7.15;3.15;;;24.60;42.60;;;;;;5013694;28;20037;-67
2021/08/17 09:02:08;;;;;;;6.05;4.05;;;24.60;41.90;;;;;;5013447;28;20026;-67
2021/08/17 09:04:35;;;;;;;7.85;3.55;;;24.60;42.10;;;;;;5012776;28;20090;-65
2021/08/17 09:07:00;;;;;;;15.63;4.30;;;24.60;42.40;;;;;;5012556;28;20034;-48
2021/08/17 09:09:26;;;;;;;6.05;4.30;;;24.60;42.60;;;;;;5007605;28;20152;-46
2021/08/17 09:11:54;;;;;;;7.20;3.83;;;24.70;42.80;;;;;;4993708;28;20034;-45
2021/08/17 09:14:24;;;;;;;5.85;3.70;;;24.70;42.60;;;;;;4994138;28;20027;-46
2021/08/17 09:17:11;;;;;;;6.15;3.42;;;24.70;42.80;;;;;;4993441;28;20037;-50
2021/08/17 09:19:39;;;;;;;6.20;3.75;;;24.70;43.00;;;;;;4993632;28;20031;-51
2021/08/17 09:22:19;;;;;;;6.65;3.67;;;24.70;43.20;;;;;;4993662;28;20026;-51
2021/08/17 09:24:49;;;;;;;5.07;3.10;;;24.70;42.80;;;;;;4993248;28;20027;-50
2021/08/17 09:27:18;;;;;;;5.97;4.13;;;24.60;42.50;;;;;;4994039;28;20460;-50
2021/08/17 09:29:46;;;;;;;6.63;3.47;;;24.60;42.50;;;;;;4993177;28;20038;-47
2021/08/17 09:32:18;;;;;;;5.18;3.63;;;24.60;43.00;;;;;;4993149;28;20019;-45
2021/08/17 09:34:48;;;;;;;10.82;3.75;;;24.60;43.00;;;;;;4993052;28;20034;-47
2021/08/17 09:37:14;;;;;;;4.72;3.15;;;24.70;43.30;;;;;;4993721;28;20022;-47
2021/08/17 09:39:49;;;;;;;5.13;3.05;;;24.60;43.00;;;;;;4992679;28;20038;-51
2021/08/17 09:42:21;;;;;;;7.65;3.53;;;24.60;43.00;;;;;;4993809;28;20113;-45
2021/08/17 09:45:09;;;;;;;9.88;3.80;;;24.70;43.20;;;;;;4992814;28;20054;-45
2021/08/17 09:47:37;;;;;;;8.18;3.70;;;24.80;43.60;;;;;;4992993;28;20097;-45
2021/08/17 09:50:29;;;;;;;6.32;3.28;;;24.70;42.90;;;;;;4993190;28;20038;-45
2021/08/17 09:53:28;;;;;;;5.32;3.45;;;24.70;42.90;;;;;;4992246;28;20465;-47
2021/08/17 09:55:56;;;;;;;7.60;3.40;;;24.70;43.10;;;;;;5001778;28;20514;-46
2021/08/17 09:58:25;;;;;;;4.43;2.80;;;24.70;43.10;;;;;;4993297;28;20034;-45
2021/08/17 10:00:55;;;;;;;5.97;2.88;;;24.70;42.80;;;;;;4992637;28;20043;-45
2021/08/17 10:03:22;;;;;;;4.85;3.10;;;24.60;42.90;;;;;;4993299;28;20029;-45
2021/08/17 10:05:48;;;;;;;6.93;3.90;;;24.60;42.80;;;;;;4992574;28;20053;-46
2021/08/17 10:08:16;;;;;;;6.15;3.50;;;24.60;42.90;;;;;;4992931;28;20034;-45
2021/08/17 10:10:46;;;;;;;4.47;2.67;;;24.70;43.10;;;;;;5008110;28;20472;-46
2021/08/17 10:13:15;;;;;;;5.97;3.40;;;24.70;42.90;;;;;;5012317;28;20507;-47
2021/08/17 10:15:43;;;;;;;7.25;3.30;;;24.70;43.10;;;;;;5010625;28;20030;-48
2021/08/17 10:18:10;;;;;;;7.22;3.70;;;24.70;42.70;;;;;;5011609;28;20037;-46
2021/08/17 10:20:41;;;;;;;5.00;3.45;;;24.70;42.90;;;;;;5012599;28;20034;-45
2021/08/17 10:23:08;;;;;;;7.20;3.17;;;24.70;43.00;;;;;;5012097;28;20022;-44
2021/08/17 10:25:42;;;;;;;5.63;3.50;;;24.70;42.90;;;;;;5012646;28;20041;-46
2021/08/17 10:28:26;;;;;;;5.13;2.75;;;24.70;42.80;;;;;;5012624;28;20030;-48
2021/08/17 10:30:52;;;;;;;4.80;3.00;;;24.80;43.00;;;;;;5011813;28;20026;-46
2021/08/17 10:33:41;;;;;;;7.85;3.63;;;24.80;42.60;;;;;;5012515;28;20109;-44
2021/08/17 10:36:27;;;;;;;4.30;3.17;;;24.80;42.70;;;;;;5012411;28;20471;-45
2021/08/17 10:38:53;;;;;;;4.38;2.95;;;24.80;42.90;;;;;;5011126;28;20045;-46
2021/08/17 10:41:29;;;;;;;5.10;3.20;;;24.80;42.90;;;;;;5012366;28;20041;-47
2021/08/17 10:43:55;;;;;;;4.13;3.13;;;24.80;42.90;;;;;;5011399;28;20032;-45
2021/08/17 10:46:43;;;;;;;5.28;3.25;;;24.70;42.90;;;;;;5012360;28;20022;-44
2021/08/17 10:49:29;;;;;;;4.47;3.15;;;24.70;43.10;;;;;;5012315;28;20057;-44
2021/08/17 10:51:58;;;;;;;4.90;3.15;;;24.70;43.20;;;;;;5011746;28;20022;-45
2021/08/17 10:54:24;;;;;;;5.53;3.45;;;24.80;43.30;;;;;;5011905;28;20480;-45
2021/08/17 10:56:49;;;;;;;5.40;3.20;;;24.80;42.70;;;;;;5009680;28;20030;-44
2021/08/17 10:59:41;;;;;;;5.38;3.50;;;24.80;43.10;;;;;;5012004;28;20509;-44
2021/08/17 11:02:09;;;;;;;4.28;2.95;;;24.80;43.30;;;;;;5012325;28;20033;-45
2021/08/17 11:04:45;;;;;;;5.13;3.15;;;24.70;43.20;;;;;;5012143;28;20033;-44
2021/08/17 11:07:35;;;;;;;4.65;3.20;;;24.70;43.10;;;;;;5012200;28;20025;-44
2021/08/17 11:10:04;;;;;;;4.40;2.83;;;24.70;43.00;;;;;;4999837;28;20050;-44
2021/08/17 11:12:32;;;;;;;3.90;2.88;;;24.70;43.00;;;;;;4992360;28;20038;-44
2021/08/17 11:14:58;;;;;;;4.22;3.30;;;24.80;43.40;;;;;;4991663;28;20383;-48
2021/08/17 11:17:24;;;;;;;5.95;3.70;;;24.70;43.30;;;;;;4992239;28;20030;-45
2021/08/17 11:19:52;;;;;;;5.40;3.63;;;24.80;43.40;;;;;;4991265;28;20038;-44
2021/08/17 11:22:29;;;;;;;3.75;2.83;;;24.80;43.10;;;;;;4992482;28;20077;-44
2021/08/17 11:25:00;;;;;;;3.33;2.53;;;24.80;43.00;;;;;;4991353;28;20030;-46
2021/08/17 11:27:37;;;;;;;5.15;3.03;;;24.80;42.90;;;;;;4992474;28;20026;-44
2021/08/17 11:30:09;;;;;;;3.78;2.80;;;24.80;42.90;;;;;;4991557;28;20085;-44
2021/08/17 11:32:44;;;;;;;4.20;2.97;;;24.80;42.90;;;;;;4992187;28;20081;-45
2021/08/17 11:35:15;;;;;;;3.55;2.78;;;24.80;42.90;;;;;;4992263;28;20113;-45
2021/08/17 11:37:46;;;;;;;4.90;2.92;;;24.80;42.80;;;;;;4992087;28;20118;-52
2021/08/17 11:40:17;;;;;;;6.32;2.88;;;24.80;42.60;;;;;;4991667;28;20040;-45
2021/08/17 11:42:45;;;;;;;4.50;2.72;;;24.70;42.50;;;;;;4991570;28;20480;-50
2021/08/17 11:45:13;;;;;;;4.90;2.90;;;24.80;42.70;;;;;;4992103;28;20033;-44
2021/08/17 11:47:40;;;;;;;4.13;2.45;;;24.80;42.70;;;;;;4992189;28;20058;-44
2021/08/17 11:50:10;;;;;;;3.40;2.38;;;24.80;42.60;;;;;;4991819;28;20054;-44
2021/08/17 11:52:47;;;;;;;5.03;3.30;;;24.70;41.80;;;;;;4991969;28;20472;-46
2021/08/17 11:55:16;;;;;;;3.85;2.65;;;24.70;41.80;;;;;;4993170;28;20487;-45
2021/08/17 11:57:44;;;;;;;4.05;2.58;;;24.60;41.30;;;;;;4995158;28;20026;-51
2021/08/17 12:00:21;;;;;;;3.33;2.33;;;24.60;41.20;;;;;;4995508;28;20034;-44
2021/08/17 12:02:56;;;;;;;4.22;2.90;;;24.60;40.90;;;;;;4994849;28;20498;-44
2021/08/17 12:05:23;;;;;;;3.42;2.60;;;24.60;41.30;;;;;;4995442;28;20030;-44
2021/08/17 12:07:52;;;;;;;4.03;2.67;;;24.70;41.50;;;;;;4994529;28;20457;-44
2021/08/17 12:10:27;;;;;;;3.15;2.42;;;24.70;41.40;;;;;;4995121;28;20041;-44
2021/08/17 12:13:14;;;;;;;4.13;2.90;;;24.80;41.50;;;;;;4994682;28;20026;-44
2021/08/17 12:15:54;;;;;;;4.28;2.90;;;24.80;41.60;;;;;;4995361;28;20031;-44
2021/08/17 12:18:22;;;;;;;4.10;2.53;;;24.80;41.60;;;;;;4995149;28;20421;-44
2021/08/17 12:21:08;;;;;;;4.65;2.90;;;24.80;41.50;;;;;;4994252;28;20472;-45
2021/08/17 12:23:35;;;;;;;3.65;2.47;;;24.80;41.60;;;;;;4995273;28;20045;-46
2021/08/17 12:26:24;;;;;;;3.60;2.35;;;24.80;41.30;;;;;;4993903;28;20038;-44
2021/08/17 12:28:52;;;;;;;3.25;2.10;;;24.80;41.50;;;;;;4994199;28;20030;-44
2021/08/17 12:31:29;;;;;;;3.90;2.65;;;24.90;41.60;;;;;;4995011;28;20026;-45
2021/08/17 12:33:57;;;;;;;2.97;2.55;;;24.80;41.50;;;;;;4994235;28;20026;-44
2021/08/17 12:36:44;;;;;;;4.03;2.22;;;24.90;41.60;;;;;;4994936;28;20137;-44
2021/08/17 12:39:17;;;;;;;4.10;2.80;;;24.90;41.40;;;;;;4996942;28;20038;-44
2021/08/17 12:42:06;;;;;;;3.55;2.33;;;25.00;41.50;;;;;;4994278;28;20108;-52
2021/08/17 12:44:37;;;;;;;3.13;2.17;;;24.90;41.30;;;;;;4994950;28;20057;-44
2021/08/17 12:47:11;;;;;;;3.35;2.40;;;24.90;41.60;;;;;;4993567;28;20031;-44
2021/08/17 12:49:44;;;;;;;3.88;2.60;;;25.00;41.50;;;;;;4994492;28;20034;-44